createdAt,value
2022-08-21T00:01:44.232Z,81.40
2022-08-21T00:04:14.675Z,78.80
2022-08-21T00:06:50.141Z,74.70
2022-08-21T00:09:20.111Z,70.70
2022-08-21T00:11:48.617Z,70.80
2022-08-21T00:14:16.781Z,70.50
2022-08-21T00:16:44.757Z,71.50
2022-08-21T00:19:13.291Z,73.40
2022-08-21T00:21:44.373Z,73.30
2022-08-21T00:24:13.256Z,73.20
2022-08-21T00:26:44.028Z,75.10
2022-08-21T00:29:11.943Z,75.90
2022-08-21T00:31:39.799Z,78.50
2022-08-21T00:34:08.303Z,79.10
2022-08-21T00:36:37.043Z,80.60
2022-08-21T00:39:06.337Z,83.50
2022-08-21T00:41:37.359Z,83.30
2022-08-21T00:44:10.236Z,83.90
2022-08-21T00:46:39.613Z,82.30
2022-08-21T00:49:08.764Z,81.30
2022-08-21T00:51:40.930Z,80.70
2022-08-21T00:54:18.697Z,81.60
2022-08-21T00:56:49.974Z,81.40
2022-08-21T00:59:21.988Z,81.30
2022-08-21T01:01:50.857Z,81.90
2022-08-21T01:04:19.026Z,81.90
2022-08-21T01:06:46.924Z,81.60
2022-08-21T01:09:15.745Z,82.90
2022-08-21T01:11:44.280Z,89.00
2022-08-21T01:14:13.009Z,91.30
2022-08-21T01:16:43.694Z,92.00
2022-08-21T01:19:12.405Z,92.30
2022-08-21T01:21:41.856Z,92.20
2022-08-21T01:24:12.920Z,93.60
2022-08-21T01:26:41.914Z,92.90
2022-08-21T01:29:16.206Z,92.90
2022-08-21T01:31:44.141Z,91.40
2022-08-21T01:34:13.004Z,91.00
2022-08-21T01:36:42.176Z,90.70
2022-08-21T01:39:10.095Z,90.20
2022-08-21T01:41:37.856Z,90.30
2022-08-21T01:44:05.814Z,92.30
2022-08-21T01:46:33.959Z,93.10
2022-08-21T01:49:01.740Z,94.90
2022-08-21T01:51:29.540Z,96.40
2022-08-21T01:53:58.647Z,98.40
2022-08-21T01:56:28.616Z,98.10
2022-08-21T01:58:56.844Z,96.90
2022-08-21T02:01:25.374Z,96.50
2022-08-21T02:03:53.204Z,94.30
2022-08-21T02:06:20.972Z,92.20
2022-08-21T02:08:49.007Z,92.10
2022-08-21T02:11:18.308Z,92.60
2022-08-21T02:13:46.149Z,93.80
2022-08-21T02:16:19.129Z,94.80
2022-08-21T02:18:47.609Z,94.70
2022-08-21T02:21:15.396Z,94.10
2022-08-21T02:23:43.286Z,95.30
2022-08-21T02:26:11.875Z,95.10
2022-08-21T02:28:42.518Z,94.20
2022-08-21T02:31:10.560Z,94.60
2022-08-21T02:33:38.360Z,94.90
2022-08-21T02:36:07.108Z,93.60
2022-08-21T02:38:38.885Z,94.50
2022-08-21T02:41:09.464Z,96.60
2022-08-21T02:43:37.437Z,96.90
2022-08-21T02:46:08.543Z,97.20
2022-08-21T02:48:37.371Z,98.50
2022-08-21T02:51:07.829Z,99.90
2022-08-21T02:53:36.312Z,99.90
2022-08-21T02:56:08.290Z,99.90
2022-08-21T02:58:42.362Z,99.90
2022-08-21T03:01:12.191Z,99.90
2022-08-21T03:03:42.994Z,98.60
2022-08-21T03:06:12.708Z,97.00
2022-08-21T03:08:40.728Z,94.70
2022-08-21T03:11:10.204Z,94.40
2022-08-21T03:13:39.537Z,94.60
2022-08-21T03:16:09.955Z,94.90
2022-08-21T03:18:39.897Z,94.50
2022-08-21T03:21:08.263Z,95.40
2022-08-21T03:23:36.629Z,96.80
2022-08-21T03:26:05.316Z,98.90
2022-08-21T03:28:33.305Z,99.90
2022-08-21T03:31:01.313Z,99.90
2022-08-21T03:33:29.114Z,99.90
2022-08-21T03:36:02.799Z,99.90
2022-08-21T03:38:32.160Z,98.10
2022-08-21T03:41:00.836Z,94.90
2022-08-21T03:43:31.104Z,93.70
2022-08-21T03:46:00.712Z,93.00
2022-08-21T03:48:28.504Z,92.50
2022-08-21T03:50:56.400Z,91.80
2022-08-21T03:53:26.070Z,91.40
2022-08-21T03:55:54.798Z,91.20
2022-08-21T03:58:25.973Z,90.90
2022-08-21T04:00:57.391Z,90.60
2022-08-21T04:03:25.841Z,90.20
2022-08-21T04:05:54.088Z,89.80
2022-08-21T04:08:22.175Z,90.20
2022-08-21T04:10:53.956Z,90.80
2022-08-21T04:13:21.807Z,91.20
2022-08-21T04:15:50.096Z,91.50
2022-08-21T04:18:18.449Z,92.20
2022-08-21T04:20:50.104Z,94.00
2022-08-21T04:23:24.061Z,96.60
2022-08-21T04:25:56.442Z,97.70
2022-08-21T04:28:28.778Z,97.60
2022-08-21T04:30:57.624Z,97.60
2022-08-21T04:33:26.100Z,99.90
2022-08-21T04:35:54.146Z,99.90
2022-08-21T04:38:22.158Z,99.90
2022-08-21T04:40:50.765Z,99.90
2022-08-21T04:43:20.415Z,99.90
2022-08-21T04:45:50.024Z,99.90
2022-08-21T04:48:19.908Z,99.90
2022-08-21T04:50:52.900Z,99.90
2022-08-21T04:53:24.630Z,99.90
2022-08-21T04:55:54.817Z,99.90
2022-08-21T04:58:27.169Z,99.90
2022-08-21T05:00:57.591Z,99.90
2022-08-21T05:03:26.021Z,99.90
2022-08-21T05:05:54.379Z,99.30
2022-08-21T05:08:25.108Z,97.30
2022-08-21T05:10:57.010Z,95.00
2022-08-21T05:13:29.163Z,94.40
2022-08-21T05:15:56.912Z,94.00
2022-08-21T05:18:24.724Z,93.30
2022-08-21T05:20:52.620Z,93.10
2022-08-21T05:23:20.708Z,93.00
2022-08-21T05:25:48.546Z,92.70
2022-08-21T05:28:16.616Z,92.70
2022-08-21T05:30:46.033Z,92.80
2022-08-21T05:33:13.814Z,92.90
2022-08-21T05:35:41.806Z,93.10
2022-08-21T05:38:17.648Z,93.10
2022-08-21T05:40:46.582Z,93.40
2022-08-21T05:43:14.668Z,93.40
2022-08-21T05:45:44.322Z,93.80
2022-08-21T05:48:16.131Z,93.30
2022-08-21T05:50:44.795Z,93.00
2022-08-21T05:53:13.304Z,93.20
2022-08-21T05:55:46.053Z,93.20
2022-08-21T05:58:15.606Z,92.80
2022-08-21T06:00:43.843Z,92.80
2022-08-21T06:03:18.775Z,93.30
2022-08-21T06:05:46.892Z,93.20
2022-08-21T06:08:14.802Z,93.30
2022-08-21T06:10:42.755Z,93.60
2022-08-21T06:13:11.517Z,94.60
2022-08-21T06:15:39.296Z,95.00
2022-08-21T06:18:07.397Z,94.50
2022-08-21T06:20:36.939Z,94.10
2022-08-21T06:23:05.219Z,94.10
2022-08-21T06:25:33.549Z,94.20
2022-08-21T06:28:05.777Z,94.10
2022-08-21T06:30:34.159Z,93.40
2022-08-21T06:33:02.463Z,93.00
2022-08-21T06:35:30.981Z,91.80
2022-08-21T06:38:00.543Z,91.90
2022-08-21T06:40:30.158Z,90.80
2022-08-21T06:42:59.519Z,90.30
2022-08-21T06:45:32.540Z,89.50
2022-08-21T06:48:00.760Z,87.20
2022-08-21T06:50:29.265Z,77.20
2022-08-21T06:53:07.517Z,70.90
2022-08-21T06:55:35.927Z,66.20
2022-08-21T06:58:03.932Z,62.20
2022-08-21T07:00:31.721Z,58.80
2022-08-21T07:03:00.272Z,56.90
2022-08-21T07:05:29.413Z,55.40
2022-08-21T07:07:58.079Z,53.60
2022-08-21T07:10:27.935Z,51.70
2022-08-21T07:13:01.041Z,50.30
2022-08-21T07:15:30.979Z,49.50
2022-08-21T07:17:59.268Z,47.60
2022-08-21T07:20:27.510Z,46.30
2022-08-21T07:22:55.782Z,46.00
2022-08-21T07:25:23.834Z,45.50
2022-08-21T07:27:52.983Z,43.70
2022-08-21T07:30:21.329Z,43.10
2022-08-21T07:32:50.120Z,41.50
2022-08-21T07:35:18.367Z,40.60
2022-08-21T07:37:46.473Z,39.50
2022-08-21T07:40:14.539Z,38.90
2022-08-21T07:42:43.173Z,38.00
2022-08-21T07:45:12.992Z,37.40
2022-08-21T07:47:42.344Z,36.90
2022-08-21T07:50:11.946Z,36.80
2022-08-21T07:52:39.829Z,36.80
2022-08-21T07:55:09.364Z,35.90
2022-08-21T07:57:37.144Z,35.30
2022-08-21T08:00:06.639Z,34.70
2022-08-21T08:02:35.768Z,34.60
2022-08-21T08:05:05.369Z,33.90
2022-08-21T08:07:33.255Z,32.90
2022-08-21T08:10:01.045Z,31.60
2022-08-21T08:12:30.380Z,30.80
2022-08-21T08:14:58.710Z,30.10
2022-08-21T08:17:26.714Z,29.50
2022-08-21T08:19:56.392Z,29.20
2022-08-21T08:22:25.724Z,29.00
2022-08-21T08:24:54.471Z,28.70
2022-08-21T08:27:23.331Z,28.20
2022-08-21T08:29:52.345Z,28.10
2022-08-21T08:32:20.903Z,27.70
2022-08-21T08:34:49.859Z,27.40
2022-08-21T08:37:19.639Z,28.10
2022-08-21T08:39:51.086Z,28.00
2022-08-21T08:42:33.384Z,26.80
2022-08-21T08:45:06.084Z,26.20
2022-08-21T08:47:38.307Z,26.40
2022-08-21T08:50:11.678Z,26.20
2022-08-21T08:52:47.373Z,25.50
2022-08-21T08:55:19.538Z,25.80
2022-08-21T08:57:51.468Z,25.20
2022-08-21T09:00:22.550Z,24.70
2022-08-21T09:02:54.582Z,25.00
2022-08-21T09:05:26.343Z,25.20
2022-08-21T09:08:19.035Z,25.40
2022-08-21T09:10:56.129Z,24.80
2022-08-21T09:13:39.300Z,25.00
2022-08-21T09:16:16.413Z,25.10
2022-08-21T09:18:55.875Z,24.80
2022-08-21T09:21:30.024Z,24.30
2022-08-21T09:24:05.922Z,23.40
2022-08-21T09:26:44.175Z,23.20
2022-08-21T09:29:13.766Z,22.40
2022-08-21T09:31:41.607Z,22.00
2022-08-21T09:34:13.028Z,21.60
2022-08-21T09:36:43.982Z,20.10
2022-08-21T09:39:23.668Z,20.30
2022-08-21T09:41:58.006Z,20.20
2022-08-21T09:44:29.309Z,19.20
2022-08-21T09:46:57.834Z,19.80
2022-08-21T09:49:33.429Z,20.70
2022-08-21T09:52:02.728Z,20.70
2022-08-21T09:54:36.070Z,20.60
2022-08-21T09:57:39.249Z,20.00
2022-08-21T10:00:25.101Z,20.90
2022-08-21T10:02:54.287Z,20.50
2022-08-21T10:05:24.987Z,20.90
2022-08-21T10:07:53.516Z,20.80
2022-08-21T10:10:25.337Z,20.20
2022-08-21T10:13:11.059Z,20.60
2022-08-21T10:15:49.964Z,20.20
2022-08-21T10:18:27.242Z,20.20
2022-08-21T10:21:03.544Z,20.40
2022-08-21T10:23:52.327Z,20.20
2022-08-21T10:26:33.525Z,20.20
2022-08-21T10:29:09.339Z,20.40
2022-08-21T10:31:48.076Z,21.10
2022-08-21T10:34:31.239Z,22.00
2022-08-21T10:37:12.194Z,23.50
2022-08-21T10:39:52.480Z,23.70
2022-08-21T10:42:31.408Z,23.60
2022-08-21T10:45:17.639Z,22.80
2022-08-21T10:47:49.792Z,22.60
2022-08-21T10:50:29.338Z,22.60
2022-08-21T10:53:10.333Z,22.80
2022-08-21T10:55:44.334Z,23.60
2022-08-21T10:58:20.171Z,22.90
2022-08-21T11:00:51.542Z,23.10
2022-08-21T11:03:26.397Z,23.70
2022-08-21T11:05:57.125Z,23.80
2022-08-21T11:08:31.087Z,23.80
2022-08-21T11:11:06.587Z,23.90
2022-08-21T11:13:43.613Z,23.50
2022-08-21T11:16:20.649Z,23.50
2022-08-21T11:18:53.560Z,24.10
2022-08-21T11:21:36.417Z,24.50
2022-08-21T11:24:23.840Z,24.50
2022-08-21T11:26:58.332Z,24.40
2022-08-21T11:29:31.309Z,24.70
2022-08-21T11:32:31.883Z,25.60
2022-08-21T11:35:10.306Z,25.30
2022-08-21T11:37:53.677Z,24.70
2022-08-21T11:40:40.248Z,25.70
2022-08-21T11:43:27.985Z,25.90
2022-08-21T11:46:01.743Z,25.30
2022-08-21T11:48:42.361Z,24.50
2022-08-21T11:51:15.657Z,24.20
2022-08-21T11:53:54.333Z,24.80
2022-08-21T11:56:27.996Z,25.30
2022-08-21T11:59:00.540Z,25.00
2022-08-21T12:01:34.889Z,24.60
2022-08-21T12:04:06.339Z,24.50
2022-08-21T12:06:37.405Z,24.20
2022-08-21T12:09:08.565Z,24.40
2022-08-21T12:11:49.809Z,23.50
2022-08-21T12:14:19.832Z,24.10
2022-08-21T12:16:50.898Z,23.80
2022-08-21T12:19:32.438Z,23.40
2022-08-21T12:22:10.753Z,22.80
2022-08-21T12:24:41.647Z,23.40
2022-08-21T12:27:26.969Z,23.40
2022-08-21T12:29:55.934Z,24.50
2022-08-21T12:32:30.162Z,24.90
2022-08-21T12:35:03.930Z,24.30
2022-08-21T12:37:40.384Z,24.20
2022-08-21T12:40:24.011Z,24.50
2022-08-21T12:42:58.968Z,24.50
2022-08-21T12:45:32.593Z,24.60
2022-08-21T12:48:16.414Z,24.70
2022-08-21T12:50:48.797Z,24.80
2022-08-21T12:53:27.953Z,25.00
2022-08-21T12:56:00.675Z,24.70
2022-08-21T12:58:28.668Z,24.70
2022-08-21T13:01:00.367Z,24.80
2022-08-21T13:03:30.220Z,24.40
2022-08-21T13:05:59.194Z,24.30
2022-08-21T13:08:28.863Z,25.20
2022-08-21T13:11:13.493Z,25.30
2022-08-21T13:13:45.731Z,25.10
2022-08-21T13:16:19.660Z,25.10
2022-08-21T13:18:59.667Z,25.30
2022-08-21T13:21:31.484Z,25.50
2022-08-21T13:24:38.851Z,25.90
2022-08-21T13:27:00.879Z,26.30
2022-08-21T13:29:32.599Z,26.10
2022-08-21T13:32:04.876Z,26.50
2022-08-21T13:34:36.808Z,26.00
2022-08-21T13:37:07.918Z,26.00
2022-08-21T13:39:36.074Z,26.20
2022-08-21T13:42:14.537Z,26.30
2022-08-21T13:44:44.863Z,26.50
2022-08-21T13:47:15.137Z,27.00
2022-08-21T13:49:47.044Z,27.60
2022-08-21T13:52:17.635Z,27.90
2022-08-21T13:54:46.120Z,28.30
2022-08-21T13:57:21.214Z,28.70
2022-08-21T13:59:50.015Z,28.30
2022-08-21T14:02:22.307Z,28.20
2022-08-21T14:04:58.220Z,28.20
2022-08-21T14:07:29.047Z,27.50
2022-08-21T14:09:57.482Z,27.00
2022-08-21T14:12:29.705Z,27.10
2022-08-21T14:14:59.894Z,26.20
2022-08-21T14:17:33.554Z,26.60
2022-08-21T14:20:04.322Z,27.00
2022-08-21T14:22:38.191Z,27.70
2022-08-21T14:25:09.249Z,27.10
2022-08-21T14:27:40.827Z,26.90
2022-08-21T14:30:13.909Z,26.90
2022-08-21T14:32:45.996Z,27.40
2022-08-21T14:35:18.340Z,27.20
2022-08-21T14:37:52.156Z,27.00
2022-08-21T14:40:21.748Z,27.00
2022-08-21T14:42:50.743Z,27.00
2022-08-21T14:45:23.817Z,26.90
2022-08-21T14:47:55.632Z,27.60
2022-08-21T14:50:27.917Z,27.90
2022-08-21T14:52:56.395Z,27.40
2022-08-21T14:55:24.362Z,27.10
2022-08-21T14:57:54.129Z,27.10
2022-08-21T15:00:26.898Z,27.90
2022-08-21T15:03:03.971Z,28.20
2022-08-21T15:05:34.136Z,28.40
2022-08-21T15:08:02.350Z,28.70
2022-08-21T15:10:31.840Z,28.50
2022-08-21T15:12:59.794Z,28.50
2022-08-21T15:15:27.857Z,28.50
2022-08-21T15:17:55.610Z,28.10
2022-08-21T15:20:23.376Z,28.00
2022-08-21T15:22:52.728Z,28.50
2022-08-21T15:25:20.691Z,28.70
2022-08-21T15:27:49.053Z,28.70
2022-08-21T15:30:16.947Z,28.90
2022-08-21T15:32:44.797Z,29.20
2022-08-21T15:35:12.878Z,29.40
2022-08-21T15:37:41.515Z,29.30
2022-08-21T15:40:11.998Z,29.20
2022-08-21T15:42:41.374Z,29.50
2022-08-21T15:45:10.681Z,29.50
2022-08-21T15:47:39.856Z,28.90
2022-08-21T15:50:10.631Z,28.80
2022-08-21T15:52:38.479Z,29.60
2022-08-21T15:55:07.318Z,29.70
2022-08-21T15:57:37.208Z,29.90
2022-08-21T16:00:13.791Z,30.00
2022-08-21T16:02:44.192Z,30.50
2022-08-21T16:05:13.322Z,29.50
2022-08-21T16:07:41.784Z,29.80
2022-08-21T16:10:10.084Z,29.80
2022-08-21T16:12:43.036Z,29.80
2022-08-21T16:15:20.365Z,29.50
2022-08-21T16:17:49.638Z,30.10
2022-08-21T16:20:20.628Z,30.20
2022-08-21T16:22:48.455Z,29.80
2022-08-21T16:25:17.574Z,30.00
2022-08-21T16:27:51.485Z,30.60
2022-08-21T16:30:21.830Z,30.70
2022-08-21T16:32:50.623Z,31.10
2022-08-21T16:35:19.830Z,30.60
2022-08-21T16:37:52.356Z,30.50
2022-08-21T16:40:22.873Z,30.20
2022-08-21T16:42:52.288Z,30.50
2022-08-21T16:45:21.285Z,30.20
2022-08-21T16:47:49.760Z,30.10
2022-08-21T16:50:22.312Z,30.10
2022-08-21T16:52:50.635Z,30.50
2022-08-21T16:55:18.619Z,30.50
2022-08-21T16:57:46.606Z,30.50
2022-08-21T17:00:16.164Z,30.40
2022-08-21T17:02:48.028Z,30.60
2022-08-21T17:05:16.727Z,31.30
2022-08-21T17:07:45.416Z,31.70
2022-08-21T17:10:15.544Z,32.00
2022-08-21T17:12:46.412Z,32.40
2022-08-21T17:15:25.677Z,32.60
2022-08-21T17:17:53.974Z,32.90
2022-08-21T17:20:22.261Z,33.10
2022-08-21T17:22:50.346Z,33.30
2022-08-21T17:25:18.303Z,33.40
2022-08-21T17:27:47.980Z,33.50
2022-08-21T17:30:18.188Z,33.80
2022-08-21T17:32:47.608Z,33.80
2022-08-21T17:35:15.778Z,34.00
2022-08-21T17:37:44.041Z,34.20
2022-08-21T17:40:15.342Z,34.50
2022-08-21T17:42:45.081Z,34.60
2022-08-21T17:45:16.110Z,34.50
2022-08-21T17:47:45.403Z,34.90
2022-08-21T17:50:15.263Z,35.20
2022-08-21T17:52:46.782Z,35.50
2022-08-21T17:55:17.065Z,35.70
2022-08-21T17:57:46.054Z,35.70
2022-08-21T18:00:17.001Z,36.10
2022-08-21T18:02:50.990Z,36.20
2022-08-21T18:05:19.282Z,36.40
2022-08-21T18:07:47.217Z,36.40
2022-08-21T18:10:14.965Z,36.40
2022-08-21T18:12:45.269Z,36.10
2022-08-21T18:15:16.205Z,36.00
2022-08-21T18:17:50.554Z,36.50
2022-08-21T18:20:21.360Z,36.80
2022-08-21T18:22:49.392Z,36.90
2022-08-21T18:25:18.010Z,37.80
2022-08-21T18:27:47.540Z,37.90
2022-08-21T18:30:18.442Z,37.70
2022-08-21T18:32:48.636Z,38.00
2022-08-21T18:35:17.704Z,38.40
2022-08-21T18:37:45.895Z,38.70
2022-08-21T18:40:15.671Z,38.90
2022-08-21T18:42:55.448Z,38.90
2022-08-21T18:45:25.696Z,39.00
2022-08-21T18:47:58.369Z,39.50
2022-08-21T18:50:29.225Z,39.50
2022-08-21T18:52:57.590Z,39.90
2022-08-21T18:55:26.382Z,40.10
2022-08-21T18:57:55.891Z,40.30
2022-08-21T19:00:27.877Z,40.20
2022-08-21T19:02:57.225Z,40.30
2022-08-21T19:05:25.335Z,40.80
2022-08-21T19:07:55.919Z,41.30
2022-08-21T19:10:28.802Z,41.70
2022-08-21T19:12:59.170Z,41.30
2022-08-21T19:15:27.389Z,41.10
2022-08-21T19:18:00.113Z,40.90
2022-08-21T19:20:34.380Z,40.90
2022-08-21T19:23:05.019Z,41.30
2022-08-21T19:25:35.042Z,41.70
2022-08-21T19:28:11.369Z,42.30
2022-08-21T19:30:42.303Z,42.30
2022-08-21T19:33:23.355Z,42.70
2022-08-21T19:35:52.509Z,43.40
2022-08-21T19:38:21.185Z,44.50
2022-08-21T19:40:49.408Z,46.20
2022-08-21T19:43:17.523Z,47.20
2022-08-21T19:45:54.460Z,47.60
2022-08-21T19:48:23.996Z,48.20
2022-08-21T19:50:52.006Z,48.20
2022-08-21T19:53:20.590Z,48.10
2022-08-21T19:55:49.066Z,48.30
2022-08-21T19:58:26.988Z,48.20
2022-08-21T20:00:54.955Z,49.00
2022-08-21T20:03:24.168Z,49.30
2022-08-21T20:05:52.129Z,49.80
2022-08-21T20:08:22.073Z,50.40
2022-08-21T20:10:50.583Z,50.80
2022-08-21T20:13:21.520Z,50.20
2022-08-21T20:15:50.667Z,49.50
2022-08-21T20:18:19.944Z,49.60
2022-08-21T20:20:56.118Z,49.80
2022-08-21T20:23:30.350Z,50.30
2022-08-21T20:26:01.401Z,50.60
2022-08-21T20:28:29.916Z,50.70
2022-08-21T20:30:58.427Z,51.00
2022-08-21T20:33:26.628Z,51.90
2022-08-21T20:35:56.095Z,52.10
2022-08-21T20:38:24.320Z,52.90
2022-08-21T20:40:54.042Z,52.40
2022-08-21T20:43:22.981Z,50.50
2022-08-21T20:45:51.455Z,49.70
2022-08-21T20:48:25.681Z,49.90
2022-08-21T20:50:59.744Z,49.90
2022-08-21T20:53:43.209Z,50.00
2022-08-21T20:56:16.792Z,50.00
2022-08-21T20:58:51.663Z,50.20
2022-08-21T21:01:20.146Z,49.80
2022-08-21T21:06:42.710Z,50.20
2022-08-21T21:09:26.807Z,49.70
2022-08-21T21:12:03.956Z,50.00
2022-08-21T21:14:39.533Z,50.50
2022-08-21T21:17:14.946Z,51.40
2022-08-21T21:19:47.394Z,53.50
2022-08-21T21:22:21.304Z,53.30
2022-08-21T21:24:55.079Z,54.50
2022-08-21T21:27:30.353Z,55.20
2022-08-21T21:30:07.342Z,55.20
2022-08-21T21:32:40.566Z,54.30
2022-08-21T21:35:09.693Z,52.70
2022-08-21T21:37:46.824Z,52.40
2022-08-21T21:40:42.495Z,52.70
2022-08-21T21:43:22.848Z,52.70
2022-08-21T21:46:10.291Z,54.00
2022-08-21T21:49:01.330Z,54.50
2022-08-21T21:51:45.744Z,53.70
2022-08-21T21:54:23.623Z,53.00
2022-08-21T21:57:03.840Z,53.40
2022-08-21T21:59:52.214Z,52.50
2022-08-21T22:02:29.541Z,51.40
2022-08-21T22:05:04.564Z,51.30
2022-08-21T22:07:41.119Z,50.60
2022-08-21T22:10:20.044Z,50.90
2022-08-21T22:13:10.345Z,51.50
2022-08-21T22:15:38.781Z,51.30
2022-08-21T22:18:13.116Z,51.60
2022-08-21T22:20:50.276Z,52.20
2022-08-21T22:23:21.540Z,52.60
2022-08-21T22:25:57.011Z,51.60
2022-08-21T22:28:26.066Z,51.10
2022-08-21T22:31:10.769Z,50.70
2022-08-21T22:33:38.994Z,50.10
2022-08-21T22:36:19.379Z,50.50
2022-08-21T22:38:47.632Z,50.80
2022-08-21T22:41:27.930Z,50.60
2022-08-21T22:43:59.840Z,49.50
2022-08-21T22:46:34.669Z,49.00
2022-08-21T22:49:07.943Z,49.10
2022-08-21T22:51:38.029Z,49.00
2022-08-21T22:54:16.703Z,48.80
2022-08-21T22:57:00.763Z,48.80
2022-08-21T22:59:31.343Z,49.10
2022-08-21T23:02:02.567Z,49.40
2022-08-21T23:04:33.691Z,49.60
2022-08-21T23:07:05.980Z,50.20
2022-08-21T23:09:36.296Z,50.60
2022-08-21T23:12:33.018Z,50.70
2022-08-21T23:15:06.174Z,50.70
2022-08-21T23:17:40.400Z,50.70
2022-08-21T23:20:15.332Z,50.60
2022-08-21T23:22:55.142Z,50.80
2022-08-21T23:25:43.204Z,50.80
2022-08-21T23:28:22.768Z,50.70
2022-08-21T23:31:06.544Z,51.20
2022-08-21T23:34:06.199Z,51.20
2022-08-21T23:36:58.331Z,51.30
2022-08-21T23:39:39.568Z,52.50
2022-08-21T23:42:21.802Z,54.70
2022-08-21T23:45:13.546Z,55.00
2022-08-21T23:47:56.803Z,54.40
2022-08-21T23:50:27.254Z,53.80
2022-08-21T23:53:09.145Z,53.10
2022-08-21T23:56:07.822Z,53.20
2022-08-21T23:58:49.805Z,53.80
